createdAt,value
2023-05-11T00:01:48.486Z,22.00
2023-05-11T00:06:52.731Z,22.00
2023-05-11T00:11:55.721Z,21.90
2023-05-11T00:16:58.654Z,22.00
2023-05-11T00:22:03.090Z,22.00
2023-05-11T00:27:06.108Z,22.00
2023-05-11T00:32:08.967Z,21.90
2023-05-11T00:37:13.186Z,21.90
2023-05-11T00:42:16.278Z,21.90
2023-05-11T00:47:19.188Z,21.90
2023-05-11T00:52:24.132Z,21.90
2023-05-11T00:57:27.383Z,21.90
2023-05-11T01:02:31.074Z,21.90
2023-05-11T01:07:39.848Z,21.90
2023-05-11T01:12:49.082Z,21.90
2023-05-11T01:17:57.174Z,21.90
2023-05-11T01:23:18.304Z,21.90
2023-05-11T01:28:53.426Z,21.90
2023-05-11T01:34:02.371Z,21.80
2023-05-11T01:39:09.321Z,21.80
2023-05-11T01:44:13.089Z,21.80
2023-05-11T01:49:18.541Z,21.80
2023-05-11T01:54:22.292Z,21.80
2023-05-11T01:59:27.277Z,21.80
2023-05-11T02:04:32.824Z,21.80
2023-05-11T02:09:37.642Z,21.80
2023-05-11T02:14:41.654Z,21.80
2023-05-11T02:19:46.436Z,21.80
2023-05-11T02:24:50.234Z,21.80
2023-05-11T02:29:53.458Z,21.80
2023-05-11T02:35:02.765Z,21.80
2023-05-11T02:40:11.619Z,21.80
2023-05-11T02:45:17.997Z,21.70
2023-05-11T02:50:25.569Z,21.70
2023-05-11T02:55:29.872Z,21.70
2023-05-11T03:00:33.118Z,21.70
2023-05-11T03:05:37.901Z,21.70
2023-05-11T03:10:42.206Z,21.70
2023-05-11T03:15:45.661Z,21.70
2023-05-11T03:20:51.885Z,21.70
2023-05-11T03:25:55.427Z,21.70
2023-05-11T03:30:58.360Z,21.70
2023-05-11T03:36:04.537Z,21.60
2023-05-11T03:41:07.441Z,21.70
2023-05-11T03:46:13.325Z,21.60
2023-05-11T03:51:17.707Z,21.60
2023-05-11T03:56:21.568Z,21.60
2023-05-11T04:01:24.801Z,21.60
2023-05-11T04:06:28.984Z,21.60
2023-05-11T04:11:31.872Z,21.60
2023-05-11T04:16:34.840Z,21.60
2023-05-11T04:21:39.224Z,21.60
2023-05-11T04:26:42.050Z,21.60
2023-05-11T04:31:44.908Z,21.60
2023-05-11T04:36:50.375Z,21.60
2023-05-11T04:41:53.229Z,21.60
2023-05-11T04:46:56.390Z,21.60
2023-05-11T04:52:00.798Z,21.60
2023-05-11T04:57:03.650Z,21.60
2023-05-11T05:02:06.478Z,21.60
2023-05-11T05:07:10.659Z,21.60
2023-05-11T05:12:13.503Z,21.50
2023-05-11T05:17:16.368Z,21.60
2023-05-11T05:22:21.166Z,21.50
2023-05-11T05:27:24.097Z,21.50
2023-05-11T05:32:27.100Z,21.60
2023-05-11T05:37:31.544Z,21.60
2023-05-11T05:42:34.396Z,21.60
2023-05-11T05:47:37.329Z,21.60
2023-05-11T05:52:41.899Z,21.60
2023-05-11T05:57:44.778Z,21.60
2023-05-11T06:02:47.805Z,21.60
2023-05-11T06:08:08.435Z,21.60
2023-05-11T06:13:13.324Z,21.60
2023-05-11T06:18:16.329Z,21.60
2023-05-11T06:23:20.545Z,21.70
2023-05-11T06:28:24.475Z,21.60
2023-05-11T06:33:27.612Z,21.60
2023-05-11T06:38:32.117Z,21.60
2023-05-11T06:43:34.977Z,21.60
2023-05-11T06:48:37.842Z,21.60
2023-05-11T06:53:42.056Z,21.70
2023-05-11T06:58:44.907Z,21.60
2023-05-11T07:03:49.073Z,21.60
2023-05-11T07:08:53.422Z,21.60
2023-05-11T07:13:56.325Z,21.60
2023-05-11T07:18:59.311Z,21.60
2023-05-11T07:24:04.104Z,21.60
2023-05-11T07:29:07.079Z,21.60
2023-05-11T07:34:09.966Z,21.60
2023-05-11T07:39:16.249Z,21.70
2023-05-11T07:44:19.653Z,21.60
2023-05-11T07:49:28.243Z,21.60
2023-05-11T07:54:40.199Z,21.70
2023-05-11T07:59:43.275Z,21.70
2023-05-11T08:04:46.177Z,21.70
2023-05-11T08:09:50.520Z,21.70
2023-05-11T08:14:53.476Z,21.70
2023-05-11T08:19:56.497Z,21.80
2023-05-11T08:25:00.798Z,21.80
2023-05-11T08:30:03.937Z,21.80
2023-05-11T08:35:07.627Z,21.90
2023-05-11T08:40:14.996Z,21.90
2023-05-11T08:45:19.772Z,21.90
2023-05-11T08:50:23.748Z,21.90
2023-05-11T08:55:29.778Z,21.90
2023-05-11T09:00:34.557Z,22.00
2023-05-11T09:05:38.335Z,22.00
2023-05-11T09:10:43.638Z,22.00
2023-05-11T09:15:46.618Z,22.10
2023-05-11T09:20:51.906Z,22.10
2023-05-11T09:25:56.617Z,22.20
2023-05-11T09:30:59.530Z,22.20
2023-05-11T09:36:03.508Z,22.20
2023-05-11T09:41:08.910Z,22.10
2023-05-11T09:46:22.823Z,22.10
2023-05-11T09:51:31.868Z,22.10
2023-05-11T09:56:47.379Z,22.10
2023-05-11T10:01:50.361Z,22.10
2023-05-11T10:06:54.179Z,22.00
2023-05-11T10:11:58.646Z,22.00
2023-05-11T10:17:04.044Z,22.10
2023-05-11T10:22:07.841Z,22.10
2023-05-11T10:27:13.123Z,22.10
2023-05-11T10:32:17.895Z,22.10
2023-05-11T10:37:21.335Z,22.10
2023-05-11T10:42:42.368Z,22.10
2023-05-11T10:48:24.404Z,22.20
2023-05-11T10:53:59.009Z,22.10
2023-05-11T10:59:28.930Z,22.20
2023-05-11T11:04:44.241Z,22.20
2023-05-11T11:09:52.492Z,22.20
2023-05-11T11:14:58.685Z,22.10
2023-05-11T11:20:02.379Z,22.10
2023-05-11T11:25:06.726Z,22.10
2023-05-11T11:30:21.307Z,22.20
2023-05-11T11:35:48.855Z,22.10
2023-05-11T11:40:53.279Z,22.10
2023-05-11T11:45:59.606Z,22.10
2023-05-11T11:51:05.911Z,22.10
2023-05-11T11:56:11.323Z,22.20
2023-05-11T12:01:17.493Z,22.10
2023-05-11T12:06:25.031Z,22.20
2023-05-11T12:11:30.929Z,22.10
2023-05-11T12:16:35.452Z,22.10
2023-05-11T12:21:38.615Z,22.10
2023-05-11T12:26:41.461Z,22.10
2023-05-11T12:31:47.293Z,22.10
2023-05-11T12:36:52.000Z,22.10
2023-05-11T12:41:56.645Z,22.00
2023-05-11T12:47:01.281Z,22.00
2023-05-11T12:52:08.924Z,22.00
2023-05-11T12:57:25.237Z,22.00
2023-05-11T13:02:29.664Z,22.00
2023-05-11T13:07:32.634Z,22.00
2023-05-11T13:12:35.567Z,22.00
2023-05-11T13:17:41.556Z,22.00
2023-05-11T13:22:44.635Z,22.00
2023-05-11T13:27:48.035Z,22.00
2023-05-11T13:32:52.434Z,22.00
2023-05-11T13:37:55.411Z,22.00
2023-05-11T13:42:58.375Z,22.00
2023-05-11T13:48:02.653Z,22.00
2023-05-11T13:53:05.604Z,22.00
2023-05-11T13:58:08.537Z,22.00
2023-05-11T14:03:13.184Z,22.10
2023-05-11T14:08:16.249Z,22.10
2023-05-11T14:13:19.125Z,22.10
2023-05-11T14:18:25.084Z,22.10
2023-05-11T14:23:28.242Z,22.10
2023-05-11T14:28:31.786Z,22.10
2023-05-11T14:33:36.083Z,22.10
2023-05-11T14:38:38.994Z,22.10
2023-05-11T14:43:42.001Z,22.10
2023-05-11T14:48:46.304Z,22.10
2023-05-11T14:53:49.245Z,22.10
2023-05-11T14:58:52.208Z,22.10
2023-05-11T15:03:56.579Z,22.10
2023-05-11T15:08:59.801Z,22.10
2023-05-11T15:14:02.664Z,22.10
2023-05-11T15:19:07.887Z,22.10
2023-05-11T15:24:11.152Z,22.10
2023-05-11T15:29:14.153Z,22.10
2023-05-11T15:34:18.424Z,22.10
2023-05-11T15:39:21.680Z,22.10
2023-05-11T15:44:24.668Z,22.10
2023-05-11T15:49:29.012Z,22.10
2023-05-11T15:54:33.362Z,22.10
2023-05-11T15:59:38.531Z,22.10
2023-05-11T16:04:42.730Z,22.00
2023-05-11T16:09:45.667Z,22.00
2023-05-11T16:14:48.639Z,22.00
2023-05-11T16:19:52.825Z,22.00
2023-05-11T16:24:55.732Z,21.90
2023-05-11T16:29:58.716Z,21.90
2023-05-11T16:35:03.050Z,21.90
2023-05-11T16:40:07.504Z,21.90
2023-05-11T16:45:11.139Z,21.90
2023-05-11T16:50:16.533Z,21.90
2023-05-11T16:55:21.329Z,21.80
2023-05-11T17:00:24.189Z,21.80
2023-05-11T17:05:28.544Z,21.80
2023-05-11T17:10:31.744Z,21.80
2023-05-11T17:15:34.689Z,21.80
2023-05-11T17:20:39.041Z,21.80
2023-05-11T17:25:43.899Z,21.80
2023-05-11T17:30:49.144Z,21.70
2023-05-11T17:35:54.438Z,21.80
2023-05-11T17:40:59.448Z,21.70
2023-05-11T17:46:04.160Z,21.70
2023-05-11T17:51:08.518Z,21.70
2023-05-11T17:56:11.925Z,21.70
2023-05-11T18:01:15.011Z,21.70
2023-05-11T18:06:19.335Z,21.60
2023-05-11T18:11:22.359Z,21.70
2023-05-11T18:16:25.372Z,21.60
2023-05-11T18:21:29.690Z,21.60
2023-05-11T18:26:32.623Z,21.60
2023-05-11T18:31:35.583Z,21.60
2023-05-11T18:36:40.066Z,21.60
2023-05-11T18:41:43.298Z,21.60
2023-05-11T18:46:46.385Z,21.60
2023-05-11T18:51:50.920Z,21.60
2023-05-11T18:56:53.891Z,21.60
2023-05-11T19:01:56.929Z,21.60
2023-05-11T19:07:02.780Z,21.60
2023-05-11T19:12:06.181Z,21.60
2023-05-11T19:17:09.102Z,21.50
2023-05-11T19:22:13.359Z,21.50
2023-05-11T19:27:16.386Z,21.50
2023-05-11T19:32:19.761Z,21.50
2023-05-11T19:37:24.087Z,21.50
2023-05-11T19:42:38.258Z,21.50
2023-05-11T19:47:42.053Z,21.50
2023-05-11T19:52:46.478Z,21.50
2023-05-11T19:57:49.489Z,21.50
2023-05-11T20:02:52.492Z,21.50
2023-05-11T20:07:56.842Z,21.40
2023-05-11T20:12:59.820Z,21.40
2023-05-11T20:18:03.674Z,21.40
2023-05-11T20:23:07.916Z,21.40
2023-05-11T20:28:10.964Z,21.40
2023-05-11T20:38:21.096Z,21.40
2023-05-11T20:43:25.564Z,21.40
2023-05-11T20:48:39.154Z,21.40
2023-05-11T20:53:45.459Z,21.30
2023-05-11T20:58:48.356Z,21.30
2023-05-11T21:03:51.345Z,21.30
2023-05-11T21:08:56.247Z,21.30
2023-05-11T21:13:59.112Z,21.30
2023-05-11T21:19:02.123Z,21.30
2023-05-11T21:24:07.350Z,21.30
2023-05-11T21:29:12.162Z,21.20
2023-05-11T21:34:15.001Z,21.30
2023-05-11T21:39:19.275Z,21.20
2023-05-11T21:44:22.328Z,21.30
2023-05-11T21:49:25.457Z,21.20
2023-05-11T21:54:29.704Z,21.20
2023-05-11T21:59:32.597Z,21.20
2023-05-11T22:04:35.600Z,21.20
2023-05-11T22:09:39.952Z,21.20
2023-05-11T22:14:42.844Z,21.20
2023-05-11T22:19:45.687Z,21.20
2023-05-11T22:24:50.256Z,21.20
2023-05-11T22:29:53.539Z,21.10
2023-05-11T22:35:01.521Z,21.10
2023-05-11T22:40:06.945Z,21.10
2023-05-11T22:45:10.874Z,21.10
2023-05-11T22:50:13.932Z,21.10
2023-05-11T22:55:18.862Z,21.10
2023-05-11T23:00:22.193Z,21.10
2023-05-11T23:05:25.778Z,21.10
2023-05-11T23:10:30.049Z,21.10
2023-05-11T23:15:33.229Z,21.10
2023-05-11T23:20:36.213Z,21.00
2023-05-11T23:25:41.107Z,21.00
2023-05-11T23:30:46.091Z,21.00
2023-05-11T23:35:49.144Z,21.00
2023-05-11T23:40:53.809Z,21.00
2023-05-11T23:45:57.765Z,21.00
2023-05-11T23:51:00.692Z,21.00
2023-05-11T23:56:05.471Z,21.00
